createdAt,value
2019-01-15T00:00:45.769Z,938.26
2019-01-15T00:01:46.183Z,938.31
2019-01-15T00:02:46.873Z,938.31
2019-01-15T00:03:47.289Z,938.35
2019-01-15T00:04:47.701Z,938.34
2019-01-15T00:05:48.830Z,938.38
2019-01-15T00:06:49.245Z,938.34
2019-01-15T00:07:50.492Z,938.38
2019-01-15T00:08:51.183Z,938.41
2019-01-15T00:09:52.155Z,938.38
2019-01-15T00:10:53.178Z,938.4
2019-01-15T00:11:53.870Z,938.4
2019-01-15T00:12:54.567Z,938.42
2019-01-15T00:13:55.541Z,938.43
2019-01-15T00:14:56.507Z,938.42
2019-01-15T00:15:56.912Z,938.41
2019-01-15T00:16:57.603Z,938.38
2019-01-15T00:17:58.022Z,938.38
2019-01-15T00:18:58.438Z,938.5
2019-01-15T00:19:59.852Z,938.48
2019-01-15T00:21:00.480Z,938.45
2019-01-15T00:22:01.723Z,938.48
2019-01-15T00:23:02.415Z,938.48
2019-01-15T00:24:02.832Z,938.45
2019-01-15T00:25:03.243Z,938.51
2019-01-15T00:26:04.116Z,938.5
2019-01-15T00:27:04.249Z,938.5
2019-01-15T00:28:04.676Z,938.52
2019-01-15T00:29:05.397Z,938.55
2019-01-15T00:30:05.812Z,938.51
2019-01-15T00:31:06.226Z,938.56
2019-01-15T00:32:06.919Z,938.51
2019-01-15T00:33:08.054Z,938.56
2019-01-15T00:34:09.194Z,938.52
2019-01-15T00:35:10.165Z,938.58
2019-01-15T00:36:11.004Z,938.62
2019-01-15T00:37:11.419Z,938.59
2019-01-15T00:38:11.889Z,938.58
2019-01-15T00:39:12.586Z,938.62
2019-01-15T00:40:13.023Z,938.62
2019-01-15T00:41:13.438Z,938.66
2019-01-15T00:42:16.174Z,938.64
2019-01-15T00:43:17.588Z,938.6
2019-01-15T00:44:18.556Z,938.59
2019-01-15T00:45:18.977Z,938.64
2019-01-15T00:46:20.085Z,938.65
2019-01-15T00:47:20.498Z,938.62
2019-01-15T00:48:20.920Z,938.62
2019-01-15T00:49:22.058Z,938.59
2019-01-15T00:50:22.755Z,938.61
2019-01-15T00:51:23.446Z,938.6
2019-01-15T00:52:23.916Z,938.55
2019-01-15T00:53:24.330Z,938.57
2019-01-15T00:54:25.468Z,938.62
2019-01-15T00:55:25.905Z,938.67
2019-01-15T00:56:26.469Z,938.7
2019-01-15T00:57:27.654Z,938.68
2019-01-15T00:58:28.064Z,938.66
2019-01-15T00:59:28.482Z,938.71
2019-01-15T01:00:29.175Z,938.74
2019-01-15T01:01:29.960Z,938.74
2019-01-15T01:02:30.649Z,938.76
2019-01-15T01:03:31.338Z,938.78
2019-01-15T01:04:32.032Z,938.82
2019-01-15T01:05:32.723Z,938.75
2019-01-15T01:06:33.584Z,938.8
2019-01-15T01:07:34.048Z,938.8
2019-01-15T01:08:34.467Z,938.81
2019-01-15T01:09:34.881Z,938.75
2019-01-15T01:10:36.022Z,938.8
2019-01-15T01:11:36.746Z,938.8
2019-01-15T01:12:37.884Z,938.81
2019-01-15T01:13:39.018Z,938.77
2019-01-15T01:14:39.273Z,938.82
2019-01-15T01:15:39.690Z,938.84
2019-01-15T01:16:40.533Z,938.88
2019-01-15T01:17:41.781Z,938.9
2019-01-15T01:18:42.916Z,938.85
2019-01-15T01:19:44.084Z,938.89
2019-01-15T01:20:45.224Z,938.88
2019-01-15T01:21:45.913Z,938.88
2019-01-15T01:22:46.606Z,938.89
2019-01-15T01:23:47.020Z,938.88
2019-01-15T01:24:47.436Z,938.87
2019-01-15T01:25:47.851Z,938.9
2019-01-15T01:26:48.673Z,938.94
2019-01-15T01:27:49.087Z,938.96
2019-01-15T01:28:49.775Z,938.93
2019-01-15T01:29:50.917Z,938.94
2019-01-15T01:30:51.335Z,938.94
2019-01-15T01:31:52.029Z,938.95
2019-01-15T01:32:52.444Z,938.97
2019-01-15T01:33:52.859Z,938.99
2019-01-15T01:34:53.553Z,939
2019-01-15T01:35:53.965Z,939.01
2019-01-15T01:36:54.514Z,939.02
2019-01-15T01:37:55.205Z,939.01
2019-01-15T01:38:56.620Z,938.98
2019-01-15T01:39:57.310Z,939.02
2019-01-15T01:40:57.725Z,939.03
2019-01-15T01:41:58.863Z,939.06
2019-01-15T01:42:59.844Z,939.08
2019-01-15T01:44:00.261Z,939.06
2019-01-15T01:45:00.985Z,939.09
2019-01-15T01:46:01.960Z,939.06
2019-01-15T01:47:02.852Z,939.05
2019-01-15T01:48:03.279Z,939.08
2019-01-15T01:49:03.698Z,939.06
2019-01-15T01:50:04.115Z,939.12
2019-01-15T01:51:04.532Z,939.14
2019-01-15T01:52:04.949Z,939.11
2019-01-15T01:53:05.641Z,939.09
2019-01-15T01:54:06.056Z,939.13
2019-01-15T01:55:06.469Z,939.14
2019-01-15T01:56:06.887Z,939.18
2019-01-15T01:57:07.454Z,939.19
2019-01-15T01:58:07.867Z,939.22
2019-01-15T01:59:09.004Z,939.21
2019-01-15T02:00:09.422Z,939.18
2019-01-15T02:01:10.562Z,939.24
2019-01-15T02:02:11.260Z,939.24
2019-01-15T02:03:11.949Z,939.21
2019-01-15T02:04:13.085Z,939.25
2019-01-15T02:05:13.778Z,939.21
2019-01-15T02:06:14.195Z,939.23
2019-01-15T02:07:14.762Z,939.27
2019-01-15T02:08:15.173Z,939.27
2019-01-15T02:09:15.586Z,939.27
2019-01-15T02:10:16.725Z,939.25
2019-01-15T02:11:17.140Z,939.22
2019-01-15T02:12:18.277Z,939.27
2019-01-15T02:13:18.524Z,939.25
2019-01-15T02:14:18.937Z,939.29
2019-01-15T02:15:20.074Z,939.33
2019-01-15T02:16:20.503Z,939.28
2019-01-15T02:17:21.325Z,939.28
2019-01-15T02:18:22.465Z,939.25
2019-01-15T02:19:23.163Z,939.22
2019-01-15T02:20:24.156Z,939.27
2019-01-15T02:21:25.295Z,939.31
2019-01-15T02:22:25.987Z,939.34
2019-01-15T02:23:26.401Z,939.3
2019-01-15T02:24:27.093Z,939.3
2019-01-15T02:25:28.267Z,939.33
2019-01-15T02:26:29.404Z,939.37
2019-01-15T02:27:30.227Z,939.39
2019-01-15T02:28:31.363Z,939.4
2019-01-15T02:29:32.501Z,939.44
2019-01-15T02:30:33.206Z,939.39
2019-01-15T02:31:33.648Z,939.39
2019-01-15T02:32:34.896Z,939.41
2019-01-15T02:33:35.587Z,939.4
2019-01-15T02:34:36.722Z,939.39
2019-01-15T02:35:37.863Z,939.35
2019-01-15T02:36:38.998Z,939.37
2019-01-15T02:37:39.410Z,939.32
2019-01-15T02:38:39.981Z,939.4
2019-01-15T02:39:40.671Z,939.39
2019-01-15T02:40:41.160Z,939.36
2019-01-15T02:41:42.140Z,939.32
2019-01-15T02:42:47.458Z,939.4
2019-01-15T02:43:47.918Z,939.37
2019-01-15T02:44:48.183Z,939.38
2019-01-15T02:45:49.263Z,939.35
2019-01-15T02:46:50.231Z,939.36
2019-01-15T02:47:50.621Z,939.39
2019-01-15T02:48:51.672Z,939.4
2019-01-15T02:49:52.927Z,939.46
2019-01-15T02:50:53.903Z,939.39
2019-01-15T02:51:55.325Z,939.45
2019-01-15T02:52:55.825Z,939.44
2019-01-15T02:53:56.517Z,939.43
2019-01-15T02:54:57.661Z,939.44
2019-01-15T02:55:58.074Z,939.44
2019-01-15T02:56:58.322Z,939.44
2019-01-15T02:57:59.482Z,939.43
2019-01-15T02:59:00.461Z,939.47
2019-01-15T03:00:00.934Z,939.47
2019-01-15T03:01:01.184Z,939.46
2019-01-15T03:02:01.469Z,939.49
2019-01-15T03:03:01.902Z,939.45
2019-01-15T03:04:02.876Z,939.48
2019-01-15T03:05:03.131Z,939.5
2019-01-15T03:06:03.823Z,939.48
2019-01-15T03:07:05.077Z,939.44
2019-01-15T03:08:05.774Z,939.46
2019-01-15T03:09:06.467Z,939.49
2019-01-15T03:10:07.218Z,939.48
2019-01-15T03:11:07.466Z,939.55
2019-01-15T03:12:08.266Z,939.56
2019-01-15T03:13:09.235Z,939.57
2019-01-15T03:14:09.927Z,939.54
2019-01-15T03:15:11.339Z,939.58
2019-01-15T03:16:11.894Z,939.56
2019-01-15T03:17:12.581Z,939.6
2019-01-15T03:18:12.996Z,939.56
2019-01-15T03:19:13.407Z,939.61
2019-01-15T03:20:13.827Z,939.62
2019-01-15T03:21:14.250Z,939.6
2019-01-15T03:22:15.395Z,939.63
2019-01-15T03:23:16.365Z,939.62
2019-01-15T03:24:17.333Z,939.57
2019-01-15T03:25:17.755Z,939.61
2019-01-15T03:26:18.564Z,939.6
2019-01-15T03:27:18.983Z,939.65
2019-01-15T03:28:19.844Z,939.58
2019-01-15T03:29:20.545Z,939.6
2019-01-15T03:30:21.530Z,939.58
2019-01-15T03:31:22.540Z,939.59
2019-01-15T03:32:23.443Z,939.58
2019-01-15T03:33:24.340Z,939.56
2019-01-15T03:34:24.759Z,939.6
2019-01-15T03:35:26.030Z,939.57
2019-01-15T03:36:26.567Z,939.62
2019-01-15T03:37:27.534Z,939.63
2019-01-15T03:38:28.647Z,939.67
2019-01-15T03:39:29.624Z,939.65
2019-01-15T03:40:30.587Z,939.68
2019-01-15T03:41:31.284Z,939.64
2019-01-15T03:42:31.807Z,939.65
2019-01-15T03:43:32.801Z,939.68
2019-01-15T03:44:33.069Z,939.67
2019-01-15T03:45:34.039Z,939.72
2019-01-15T03:46:34.731Z,939.74
2019-01-15T03:47:35.147Z,939.68
2019-01-15T03:48:35.836Z,939.73
2019-01-15T03:49:36.803Z,939.72
2019-01-15T03:50:37.218Z,939.8
2019-01-15T03:51:38.248Z,939.74
2019-01-15T03:52:39.380Z,939.79
2019-01-15T03:53:40.071Z,939.78
2019-01-15T03:54:41.076Z,939.72
2019-01-15T03:55:41.770Z,939.75
2019-01-15T03:56:42.184Z,939.76
2019-01-15T03:57:43.330Z,939.75
2019-01-15T03:58:43.719Z,939.76
2019-01-15T03:59:44.242Z,939.81
2019-01-15T04:00:44.665Z,939.81
2019-01-15T04:01:45.649Z,939.83
2019-01-15T04:02:46.792Z,939.8
2019-01-15T04:03:47.500Z,939.84
2019-01-15T04:04:48.092Z,939.85
2019-01-15T04:05:48.355Z,939.89
2019-01-15T04:06:49.599Z,939.94
2019-01-15T04:07:50.294Z,939.91
2019-01-15T04:08:51.406Z,939.92
2019-01-15T04:09:51.654Z,939.93
2019-01-15T04:10:52.625Z,939.91
2019-01-15T04:11:53.040Z,939.9
2019-01-15T04:12:53.293Z,939.91
2019-01-15T04:13:54.254Z,939.91
2019-01-15T04:14:54.830Z,939.87
2019-01-15T04:15:55.526Z,939.99
2019-01-15T04:16:56.491Z,939.94
2019-01-15T04:17:57.182Z,939.88
2019-01-15T04:18:57.721Z,939.89
2019-01-15T04:19:58.136Z,939.89
2019-01-15T04:20:58.692Z,939.84
2019-01-15T04:21:58.949Z,939.89
2019-01-15T04:22:59.928Z,939.92
2019-01-15T04:24:00.168Z,939.86
2019-01-15T04:25:00.585Z,939.91
2019-01-15T04:26:01.122Z,939.91
2019-01-15T04:27:01.815Z,939.89
2019-01-15T04:28:02.950Z,939.92
2019-01-15T04:29:04.374Z,939.88
2019-01-15T04:30:05.072Z,939.88
2019-01-15T04:31:05.766Z,939.88
2019-01-15T04:32:06.463Z,939.88
2019-01-15T04:33:06.873Z,939.87
2019-01-15T04:34:07.844Z,939.92
2019-01-15T04:35:08.612Z,939.83
2019-01-15T04:36:09.194Z,939.83
2019-01-15T04:37:09.889Z,939.87
2019-01-15T04:38:11.026Z,939.88
2019-01-15T04:39:12.134Z,939.89
2019-01-15T04:40:12.852Z,939.87
2019-01-15T04:41:13.550Z,939.92
2019-01-15T04:42:14.518Z,939.93
2019-01-15T04:43:20.642Z,939.94
2019-01-15T04:44:21.331Z,939.9
2019-01-15T04:45:21.578Z,939.91
2019-01-15T04:46:22.339Z,939.89
2019-01-15T04:47:23.031Z,939.88
2019-01-15T04:48:24.002Z,939.91
2019-01-15T04:49:24.253Z,939.98
2019-01-15T04:50:24.711Z,939.98
2019-01-15T04:51:25.399Z,939.97
2019-01-15T04:52:26.537Z,940
2019-01-15T04:53:27.225Z,939.98
2019-01-15T04:54:28.193Z,940
2019-01-15T04:55:28.602Z,939.99
2019-01-15T04:56:29.309Z,939.99
2019-01-15T04:57:30.274Z,940.02
2019-01-15T04:58:31.409Z,940
2019-01-15T04:59:31.958Z,939.96
2019-01-15T05:00:32.928Z,939.99
2019-01-15T05:01:33.339Z,940.02
2019-01-15T05:02:33.753Z,940.04
2019-01-15T05:03:34.165Z,940.04
2019-01-15T05:04:35.307Z,940.04
2019-01-15T05:05:35.554Z,940.04
2019-01-15T05:06:36.685Z,940
2019-01-15T05:07:37.387Z,940.04
2019-01-15T05:08:37.909Z,940.01
2019-01-15T05:09:38.750Z,940.02
2019-01-15T05:10:39.163Z,939.98
2019-01-15T05:11:40.144Z,940
2019-01-15T05:12:40.673Z,939.95
2019-01-15T05:13:41.088Z,939.99
2019-01-15T05:14:42.055Z,940.02
2019-01-15T05:15:43.050Z,940
2019-01-15T05:16:43.459Z,940.04
2019-01-15T05:17:44.427Z,939.99
2019-01-15T05:18:45.060Z,940.04
2019-01-15T05:19:45.769Z,940.07
2019-01-15T05:20:46.754Z,940.04
2019-01-15T05:21:47.728Z,940.11
2019-01-15T05:22:48.143Z,940.11
2019-01-15T05:23:48.403Z,940.08
2019-01-15T05:24:49.015Z,940.19
2019-01-15T05:25:50.436Z,940.14
2019-01-15T05:26:50.846Z,940.21
2019-01-15T05:27:51.309Z,940.17
2019-01-15T05:28:52.283Z,940.25
2019-01-15T05:29:53.473Z,940.18
2019-01-15T05:30:53.722Z,940.12
2019-01-15T05:31:54.134Z,940.18
2019-01-15T05:32:54.825Z,940.17
2019-01-15T05:33:55.518Z,940.15
2019-01-15T05:34:56.495Z,940.17
2019-01-15T05:35:57.025Z,940.19
2019-01-15T05:36:58.023Z,940.23
2019-01-15T05:37:58.271Z,940.23
2019-01-15T05:38:58.531Z,940.28
2019-01-15T05:39:59.075Z,940.3
2019-01-15T05:40:59.684Z,940.35
2019-01-15T05:41:59.945Z,940.31
2019-01-15T05:43:00.452Z,940.28
2019-01-15T05:44:00.873Z,940.2
2019-01-15T05:45:01.845Z,940.2
2019-01-15T05:46:02.597Z,940.15
2019-01-15T05:47:03.023Z,940.19
2019-01-15T05:48:03.436Z,940.15
2019-01-15T05:49:03.990Z,940.15
2019-01-15T05:50:04.807Z,940.2
2019-01-15T05:51:05.051Z,940.2
2019-01-15T05:52:05.742Z,940.22
2019-01-15T05:53:06.161Z,940.25
2019-01-15T05:54:06.579Z,940.3
2019-01-15T05:55:07.181Z,940.3
2019-01-15T05:56:10.199Z,940.36
2019-01-15T05:57:11.330Z,940.36
2019-01-15T05:58:11.574Z,940.33
2019-01-15T05:59:12.326Z,940.38
2019-01-15T06:00:12.872Z,940.35
2019-01-15T06:01:13.286Z,940.37
2019-01-15T06:02:13.976Z,940.39
2019-01-15T06:03:14.391Z,940.47
2019-01-15T06:04:15.527Z,940.48
2019-01-15T06:05:15.939Z,940.52
2019-01-15T06:06:16.959Z,940.53
2019-01-15T06:07:17.926Z,940.61
2019-01-15T06:08:18.342Z,940.64
2019-01-15T06:09:19.032Z,940.6
2019-01-15T06:10:19.576Z,940.63
2019-01-15T06:11:20.275Z,940.7
2019-01-15T06:12:21.517Z,940.68
2019-01-15T06:13:21.930Z,940.72
2019-01-15T06:14:22.393Z,940.76
2019-01-15T06:15:22.805Z,940.77
2019-01-15T06:16:23.515Z,940.77
2019-01-15T06:17:24.212Z,940.74
2019-01-15T06:18:24.901Z,940.77
2019-01-15T06:19:25.649Z,940.79
2019-01-15T06:20:26.480Z,940.78
2019-01-15T06:21:26.893Z,940.82
2019-01-15T06:22:27.307Z,940.79
2019-01-15T06:23:28.001Z,940.88
2019-01-15T06:24:28.691Z,940.92
2019-01-15T06:25:29.381Z,940.89
2019-01-15T06:26:30.072Z,940.95
2019-01-15T06:27:30.595Z,941
2019-01-15T06:28:31.117Z,941.04
2019-01-15T06:29:31.818Z,941.14
2019-01-15T06:30:32.657Z,941.2
2019-01-15T06:31:33.625Z,941.26
2019-01-15T06:32:34.762Z,941.26
2019-01-15T06:33:35.177Z,941.22
2019-01-15T06:34:36.591Z,941.16
2019-01-15T06:35:37.729Z,941.14
2019-01-15T06:36:38.716Z,941.15
2019-01-15T06:37:39.477Z,941.05
2019-01-15T06:38:40.190Z,940.95
2019-01-15T06:39:40.881Z,940.99
2019-01-15T06:40:41.704Z,941
2019-01-15T06:41:42.117Z,940.94
2019-01-15T06:42:42.572Z,940.82
2019-01-15T06:43:50.370Z,940.83
2019-01-15T06:43:55.048Z,940.82
2019-01-15T06:44:55.584Z,940.84
2019-01-15T06:45:56.558Z,940.78
2019-01-15T06:46:57.532Z,940.79
2019-01-15T06:47:58.785Z,940.8
2019-01-15T06:48:59.198Z,940.78
2019-01-15T06:49:59.894Z,940.82
2019-01-15T06:51:00.749Z,940.8
2019-01-15T06:52:01.000Z,940.84
2019-01-15T06:53:01.692Z,940.84
2019-01-15T06:54:02.112Z,940.82
2019-01-15T06:55:02.718Z,940.89
2019-01-15T06:56:03.412Z,940.98
2019-01-15T06:57:04.124Z,940.93
2019-01-15T06:58:05.379Z,940.96
2019-01-15T06:59:06.073Z,941.03
2019-01-15T07:00:06.768Z,941.05
2019-01-15T07:01:07.460Z,941
2019-01-15T07:02:08.429Z,941.05
2019-01-15T07:03:09.565Z,941.04
2019-01-15T07:04:10.521Z,941.16
2019-01-15T07:05:11.597Z,941.2
2019-01-15T07:06:12.741Z,941.25
2019-01-15T07:07:13.992Z,941.17
2019-01-15T07:08:14.410Z,941.14
2019-01-15T07:09:15.384Z,941.16
2019-01-15T07:10:16.362Z,941.17
2019-01-15T07:11:16.993Z,941.05
2019-01-15T07:11:29.232Z,941.08
2019-01-15T07:12:30.643Z,941.12
2019-01-15T07:12:41.756Z,941.13
2019-01-15T07:12:53.963Z,941.13
2019-01-15T07:13:05.406Z,941.15
2019-01-15T07:13:17.564Z,941.12
2019-01-15T07:14:17.339Z,941.13
2019-01-15T07:15:18.082Z,941.11
2019-01-15T07:16:18.594Z,941.12
2019-01-15T07:17:20.085Z,941.16
2019-01-15T07:18:21.033Z,941.13
2019-01-15T07:19:22.005Z,941.16
2019-01-15T07:20:22.699Z,941.12
2019-01-15T07:21:23.394Z,941.15
2019-01-15T07:22:24.368Z,941.19
2019-01-15T07:23:26.678Z,941.19
2019-01-15T07:24:27.216Z,941.18
2019-01-15T07:25:28.248Z,941.28
2019-01-15T07:26:28.719Z,941.26
2019-01-15T07:27:29.414Z,941.19
2019-01-15T07:28:30.107Z,941.28
2019-01-15T07:29:32.327Z,941.27
2019-01-15T07:29:44.827Z,941.22
2019-01-15T07:30:45.933Z,941.34
2019-01-15T07:31:46.671Z,941.3
2019-01-15T07:32:48.649Z,941.26
2019-01-15T07:33:48.544Z,941.35
2019-01-15T07:34:49.237Z,941.36
2019-01-15T07:35:49.965Z,941.28
2019-01-15T07:36:50.666Z,941.28
2019-01-15T07:37:51.359Z,941.24
2019-01-15T07:38:52.268Z,941.28
2019-01-15T07:39:03.800Z,941.31
2019-01-15T07:40:04.630Z,941.3
2019-01-15T07:41:05.046Z,941.32
2019-01-15T07:42:05.462Z,941.29
2019-01-15T07:43:05.883Z,941.29
2019-01-15T07:44:07.031Z,941.27
2019-01-15T07:45:08.025Z,941.3
2019-01-15T07:46:09.023Z,941.29
2019-01-15T07:47:10.420Z,941.32
2019-01-15T07:48:11.394Z,941.27
2019-01-15T07:49:12.091Z,941.29
2019-01-15T07:50:12.947Z,941.29
2019-01-15T07:51:13.900Z,941.31
2019-01-15T07:52:14.918Z,941.3
2019-01-15T07:53:15.147Z,941.32
2019-01-15T07:54:15.585Z,941.31
2019-01-15T07:55:17.599Z,941.29
2019-01-15T07:56:17.686Z,941.3
2019-01-15T07:57:18.686Z,941.35
2019-01-15T07:58:19.105Z,941.4
2019-01-15T07:59:20.374Z,941.38
2019-01-15T08:00:21.053Z,941.4
2019-01-15T08:01:21.746Z,941.36
2019-01-15T08:02:22.164Z,941.36
2019-01-15T08:03:23.305Z,941.41
2019-01-15T08:04:23.856Z,941.39
2019-01-15T08:05:24.825Z,941.39
2019-01-15T08:06:25.804Z,941.42
2019-01-15T08:07:26.422Z,941.44
2019-01-15T08:08:26.842Z,941.45
2019-01-15T08:09:27.262Z,941.48
2019-01-15T08:10:28.093Z,941.5
2019-01-15T08:11:29.234Z,941.45
2019-01-15T08:12:31.466Z,941.49
2019-01-15T08:12:42.547Z,941.45
2019-01-15T08:13:42.855Z,941.49
2019-01-15T08:14:43.274Z,941.49
2019-01-15T08:15:44.251Z,941.43
2019-01-15T08:16:45.390Z,941.44
2019-01-15T08:17:45.864Z,941.46
2019-01-15T08:18:46.576Z,941.43
2019-01-15T08:19:47.007Z,941.45
2019-01-15T08:20:48.152Z,941.52
2019-01-15T08:21:48.573Z,941.46
2019-01-15T08:22:49.716Z,941.52
2019-01-15T08:23:50.592Z,941.47
2019-01-15T08:24:51.571Z,941.45
2019-01-15T08:25:51.981Z,941.49
2019-01-15T08:26:52.447Z,941.49
2019-01-15T08:27:53.424Z,941.52
2019-01-15T08:28:53.613Z,941.47
2019-01-15T08:29:54.583Z,941.49
2019-01-15T08:30:55.722Z,941.51
2019-01-15T08:31:56.696Z,941.48
2019-01-15T08:32:58.698Z,941.49
2019-01-15T08:33:09.328Z,941.47
2019-01-15T08:34:09.433Z,941.45
2019-01-15T08:35:09.856Z,941.47
2019-01-15T08:36:10.312Z,941.48
2019-01-15T08:37:11.453Z,941.49
2019-01-15T08:38:11.712Z,941.47
2019-01-15T08:39:12.174Z,941.48
2019-01-15T08:40:12.595Z,941.49
2019-01-15T08:41:13.317Z,941.45
2019-01-15T08:42:14.129Z,941.45
2019-01-15T08:43:14.788Z,941.42
2019-01-15T08:44:19.835Z,941.4
2019-01-15T08:44:27.603Z,941.38
2019-01-15T08:45:27.961Z,941.42
2019-01-15T08:46:29.107Z,941.4
2019-01-15T08:47:29.521Z,941.41
2019-01-15T08:48:30.662Z,941.41
2019-01-15T08:49:31.368Z,941.39
2019-01-15T08:50:32.510Z,941.42
2019-01-15T08:51:32.933Z,941.35
2019-01-15T08:52:33.408Z,941.4
2019-01-15T08:53:34.153Z,941.33
2019-01-15T08:54:34.854Z,941.4
2019-01-15T08:55:35.103Z,941.42
2019-01-15T08:56:36.379Z,941.38
2019-01-15T08:57:37.354Z,941.37
2019-01-15T08:58:38.330Z,941.38
2019-01-15T08:59:39.473Z,941.35
2019-01-15T09:00:40.190Z,941.37
2019-01-15T09:01:40.830Z,941.34
2019-01-15T09:02:41.997Z,941.4
2019-01-15T09:03:42.257Z,941.39
2019-01-15T09:04:43.402Z,941.39
2019-01-15T09:05:44.238Z,941.34
2019-01-15T09:06:44.934Z,941.37
2019-01-15T09:07:45.641Z,941.38
2019-01-15T09:08:46.340Z,941.42
2019-01-15T09:09:48.909Z,941.44
2019-01-15T09:09:59.293Z,941.47
2019-01-15T09:10:59.471Z,941.47
2019-01-15T09:12:00.389Z,941.44
2019-01-15T09:13:01.415Z,941.41
2019-01-15T09:14:01.863Z,941.39
2019-01-15T09:15:02.681Z,941.43
2019-01-15T09:16:03.663Z,941.41
2019-01-15T09:17:11.536Z,941.38
2019-01-15T09:17:16.794Z,941.37
2019-01-15T09:18:17.265Z,941.34
2019-01-15T09:19:18.249Z,941.37
2019-01-15T09:20:21.951Z,941.38
2019-01-15T09:20:31.179Z,941.38
2019-01-15T09:21:31.147Z,941.39
2019-01-15T09:22:32.124Z,941.38
2019-01-15T09:23:33.265Z,941.38
2019-01-15T09:24:33.963Z,941.4
2019-01-15T09:25:34.999Z,941.36
2019-01-15T09:26:36.030Z,941.38
2019-01-15T09:27:36.477Z,941.41
2019-01-15T09:28:37.196Z,941.39
2019-01-15T09:29:38.337Z,941.45
2019-01-15T09:30:40.409Z,941.41
2019-01-15T09:31:40.799Z,941.39
2019-01-15T09:32:41.499Z,941.39
2019-01-15T09:33:42.410Z,941.36
2019-01-15T09:34:43.821Z,941.34
2019-01-15T09:35:45.091Z,941.38
2019-01-15T09:36:45.189Z,941.36
2019-01-15T09:37:45.891Z,941.34
2019-01-15T09:38:46.315Z,941.34
2019-01-15T09:39:47.342Z,941.4
2019-01-15T09:39:59.591Z,941.32
2019-01-15T09:40:59.815Z,941.34
2019-01-15T09:42:00.252Z,941.34
2019-01-15T09:43:00.896Z,941.33
2019-01-15T09:44:01.888Z,941.34
2019-01-15T09:45:02.874Z,941.3
2019-01-15T09:46:03.568Z,941.34
2019-01-15T09:47:04.544Z,941.35
2019-01-15T09:48:05.246Z,941.3
2019-01-15T09:49:06.384Z,941.36
2019-01-15T09:50:08.445Z,941.35
2019-01-15T09:51:08.775Z,941.4
2019-01-15T09:52:21.750Z,941.39
2019-01-15T09:52:33.271Z,941.38
2019-01-15T09:53:33.489Z,941.37
2019-01-15T09:54:34.647Z,941.37
2019-01-15T09:55:36.715Z,941.37
2019-01-15T09:55:47.908Z,941.35
2019-01-15T09:55:59.596Z,941.34
2019-01-15T09:57:00.244Z,941.35
2019-01-15T09:58:02.284Z,941.34
2019-01-15T09:58:13.516Z,941.34
2019-01-15T09:59:14.001Z,941.32
2019-01-15T10:00:14.424Z,941.35
2019-01-15T10:01:15.127Z,941.31
2019-01-15T10:02:16.105Z,941.29
2019-01-15T10:03:16.359Z,941.27
2019-01-15T10:04:18.667Z,941.28
2019-01-15T10:04:29.642Z,941.29
2019-01-15T10:05:29.926Z,941.27
2019-01-15T10:06:30.353Z,941.22
2019-01-15T10:07:31.332Z,941.19
2019-01-15T10:08:31.746Z,941.2
2019-01-15T10:09:33.876Z,941.15
2019-01-15T10:09:45.231Z,941.18
2019-01-15T10:10:46.888Z,941.16
2019-01-15T10:11:46.720Z,941.16
2019-01-15T10:12:47.427Z,941.13
2019-01-15T10:13:47.852Z,941.17
2019-01-15T10:14:48.830Z,941.14
2019-01-15T10:15:49.250Z,941.13
2019-01-15T10:16:49.953Z,941.12
2019-01-15T10:17:50.652Z,941.07
2019-01-15T10:18:51.095Z,941.02
2019-01-15T10:19:51.800Z,941.04
2019-01-15T10:20:52.372Z,941.09
2019-01-15T10:21:52.799Z,941.08
2019-01-15T10:22:53.784Z,941.02
2019-01-15T10:23:54.929Z,941.04
2019-01-15T10:24:55.951Z,941
2019-01-15T10:25:56.996Z,941.04
2019-01-15T10:26:57.703Z,941.07
2019-01-15T10:27:58.445Z,941.07
2019-01-15T10:29:00.019Z,941.05
2019-01-15T10:30:01.071Z,941.11
2019-01-15T10:31:01.906Z,941.07
2019-01-15T10:32:02.606Z,941.08
2019-01-15T10:33:03.030Z,941.05
2019-01-15T10:34:04.009Z,941
2019-01-15T10:35:04.425Z,941.03
2019-01-15T10:36:05.458Z,941.07
2019-01-15T10:37:05.880Z,941.03
2019-01-15T10:38:07.287Z,941.05
2019-01-15T10:39:08.640Z,941.03
2019-01-15T10:40:09.793Z,941
2019-01-15T10:41:10.358Z,940.97
2019-01-15T10:42:10.776Z,940.95
2019-01-15T10:43:11.031Z,940.92
2019-01-15T10:44:12.284Z,940.95
2019-01-15T10:45:12.991Z,940.91
2019-01-15T10:46:13.690Z,940.85
2019-01-15T10:47:14.003Z,940.84
2019-01-15T10:48:14.976Z,940.83
2019-01-15T10:49:16.118Z,940.8
2019-01-15T10:50:17.118Z,940.8
2019-01-15T10:51:17.954Z,940.79
2019-01-15T10:52:18.655Z,940.75
2019-01-15T10:53:19.803Z,940.8
2019-01-15T10:54:20.229Z,940.82
2019-01-15T10:55:20.656Z,940.83
2019-01-15T10:56:21.847Z,940.83
2019-01-15T10:57:22.675Z,940.84
2019-01-15T10:58:23.155Z,940.85
2019-01-15T10:59:23.997Z,940.81
2019-01-15T11:00:24.314Z,940.83
2019-01-15T11:01:25.449Z,940.82
2019-01-15T11:02:25.653Z,940.75
2019-01-15T11:03:26.645Z,940.82
2019-01-15T11:04:27.242Z,940.8
2019-01-15T11:05:28.398Z,940.77
2019-01-15T11:06:29.817Z,940.81
2019-01-15T11:07:30.542Z,940.81
2019-01-15T11:08:32.732Z,940.78
2019-01-15T11:09:33.170Z,940.75
2019-01-15T11:10:33.599Z,940.82
2019-01-15T11:11:34.712Z,940.79
2019-01-15T11:12:35.137Z,940.77
2019-01-15T11:13:36.116Z,940.79
2019-01-15T11:14:36.817Z,940.79
2019-01-15T11:15:43.680Z,940.79
2019-01-15T11:15:50.518Z,940.79
2019-01-15T11:16:51.102Z,940.8
2019-01-15T11:17:51.827Z,940.77
2019-01-15T11:18:52.798Z,940.76
2019-01-15T11:19:53.554Z,940.74
2019-01-15T11:20:54.979Z,940.74
2019-01-15T11:21:55.401Z,940.76
2019-01-15T11:22:56.106Z,940.74
2019-01-15T11:23:57.078Z,940.72
2019-01-15T11:24:57.781Z,940.72
2019-01-15T11:25:58.483Z,940.71
2019-01-15T11:26:58.791Z,940.7
2019-01-15T11:27:59.527Z,940.68
2019-01-15T11:29:00.509Z,940.65
2019-01-15T11:30:01.492Z,940.65
2019-01-15T11:31:03.188Z,940.62
2019-01-15T11:31:15.606Z,940.62
2019-01-15T11:32:15.395Z,940.63
2019-01-15T11:33:18.470Z,940.6
2019-01-15T11:33:28.269Z,940.55
2019-01-15T11:34:30.430Z,940.55
2019-01-15T11:34:41.453Z,940.53
2019-01-15T11:34:53.134Z,940.55
2019-01-15T11:35:06.911Z,940.55
2019-01-15T11:35:20.068Z,940.56
2019-01-15T11:35:33.163Z,940.53
2019-01-15T11:36:32.483Z,940.46
2019-01-15T11:37:32.898Z,940.37
2019-01-15T11:38:34.044Z,940.4
2019-01-15T11:39:34.886Z,940.37
2019-01-15T11:40:35.679Z,940.41
2019-01-15T11:41:36.825Z,940.39
2019-01-15T11:42:37.527Z,940.45
2019-01-15T11:43:39.752Z,940.4
2019-01-15T11:44:39.944Z,940.33
2019-01-15T11:45:41.370Z,940.33
2019-01-15T11:46:43.639Z,940.34
2019-01-15T11:46:54.341Z,940.32
2019-01-15T11:47:54.491Z,940.31
2019-01-15T11:48:54.914Z,940.28
2019-01-15T11:49:55.628Z,940.26
2019-01-15T11:50:56.046Z,940.27
2019-01-15T11:51:56.755Z,940.27
2019-01-15T11:52:57.470Z,940.25
2019-01-15T11:53:57.674Z,940.24
2019-01-15T11:54:58.822Z,940.23
2019-01-15T11:55:59.303Z,940.24
2019-01-15T11:57:00.295Z,940.26
2019-01-15T11:58:01.039Z,940.24
2019-01-15T11:59:03.321Z,940.31
2019-01-15T11:59:15.289Z,940.31
2019-01-15T12:00:15.562Z,940.33
2019-01-15T12:01:16.166Z,940.37
2019-01-15T12:02:22.870Z,940.34
2019-01-15T12:02:28.287Z,940.36
2019-01-15T12:03:28.952Z,940.27
2019-01-15T12:04:30.276Z,940.3
2019-01-15T12:05:32.366Z,940.26
2019-01-15T12:05:43.394Z,940.31
2019-01-15T12:06:43.770Z,940.28
2019-01-15T12:07:44.270Z,940.22
2019-01-15T12:08:45.423Z,940.31
2019-01-15T12:09:46.131Z,940.25
2019-01-15T12:10:47.585Z,940.18
2019-01-15T12:11:48.004Z,940.23
2019-01-15T12:12:48.720Z,940.18
2019-01-15T12:13:49.572Z,940.16
2019-01-15T12:14:51.187Z,940.21
2019-01-15T12:15:10.580Z,940.22